createdAt,value
2023-03-13T00:01:10.270Z,11.90
2023-03-13T00:03:37.064Z,11.90
2023-03-13T00:06:04.020Z,12.00
2023-03-13T00:08:30.880Z,11.80
2023-03-13T00:10:57.770Z,11.70
2023-03-13T00:13:24.860Z,11.70
2023-03-13T00:16:03.847Z,11.70
2023-03-13T00:18:31.038Z,11.70
2023-03-13T00:21:02.093Z,11.90
2023-03-13T00:23:29.481Z,11.90
2023-03-13T00:26:18.031Z,11.90
2023-03-13T00:28:46.138Z,11.90
2023-03-13T00:31:24.771Z,11.80
2023-03-13T00:33:54.334Z,11.80
2023-03-13T00:36:32.980Z,11.80
2023-03-13T00:39:00.261Z,11.90
2023-03-13T00:41:32.791Z,11.90
2023-03-13T00:44:00.234Z,11.90
2023-03-13T00:46:29.448Z,11.80
2023-03-13T00:48:56.676Z,11.70
2023-03-13T00:51:26.783Z,11.80
2023-03-13T00:53:53.829Z,11.90
2023-03-13T00:56:21.584Z,11.90
2023-03-13T00:58:50.077Z,11.90
2023-03-13T01:01:20.049Z,11.90
2023-03-13T01:03:49.739Z,12.00
2023-03-13T01:06:19.380Z,12.00
2023-03-13T01:08:46.119Z,12.20
2023-03-13T01:11:16.355Z,12.20
2023-03-13T01:13:43.350Z,12.20
2023-03-13T01:16:11.754Z,12.10
2023-03-13T01:18:40.655Z,12.10
2023-03-13T01:21:07.542Z,12.00
2023-03-13T01:23:34.359Z,12.00
2023-03-13T01:26:01.587Z,12.10
2023-03-13T01:28:28.619Z,12.10
2023-03-13T01:30:55.416Z,12.10
2023-03-13T01:33:22.253Z,12.20
2023-03-13T01:35:49.039Z,12.30
2023-03-13T01:38:15.800Z,12.20
2023-03-13T01:40:48.124Z,12.30
2023-03-13T01:43:27.940Z,12.20
2023-03-13T01:46:18.944Z,12.50
2023-03-13T01:49:03.624Z,12.40
2023-03-13T01:51:45.567Z,12.50
2023-03-13T01:54:19.492Z,12.50
2023-03-13T01:57:23.776Z,12.50
2023-03-13T01:59:55.790Z,12.60
2023-03-13T02:02:23.530Z,12.50
2023-03-13T02:04:56.168Z,12.60
2023-03-13T02:07:34.125Z,12.60
2023-03-13T02:10:01.529Z,12.60
2023-03-13T02:12:37.090Z,12.60
2023-03-13T02:15:14.910Z,12.60
2023-03-13T02:17:42.532Z,12.60
2023-03-13T02:20:10.448Z,12.50
2023-03-13T02:22:49.186Z,12.60
2023-03-13T02:25:24.038Z,12.60
2023-03-13T02:28:11.507Z,12.50
2023-03-13T02:30:39.800Z,12.50
2023-03-13T02:33:06.612Z,12.40
2023-03-13T02:35:33.606Z,12.50
2023-03-13T02:38:03.689Z,12.50
2023-03-13T02:40:37.338Z,12.40
2023-03-13T02:43:11.123Z,12.50
2023-03-13T02:45:37.976Z,12.40
2023-03-13T02:48:04.669Z,12.50
2023-03-13T02:50:32.193Z,12.40
2023-03-13T02:53:04.219Z,12.40
2023-03-13T02:55:41.495Z,12.30
2023-03-13T02:58:08.479Z,12.10
2023-03-13T03:00:35.999Z,11.90
2023-03-13T03:03:02.794Z,11.70
2023-03-13T03:05:29.607Z,11.70
2023-03-13T03:07:56.387Z,11.60
2023-03-13T03:10:23.162Z,11.60
2023-03-13T03:12:52.119Z,11.60
2023-03-13T03:15:18.964Z,11.60
2023-03-13T03:17:45.665Z,11.60
2023-03-13T03:20:12.693Z,11.70
2023-03-13T03:22:40.880Z,11.60
2023-03-13T03:25:09.323Z,11.70
2023-03-13T03:27:36.609Z,11.50
2023-03-13T03:30:05.536Z,11.60
2023-03-13T03:32:32.418Z,11.40
2023-03-13T03:34:59.145Z,11.20
2023-03-13T03:37:26.036Z,11.00
2023-03-13T03:39:52.857Z,11.00
2023-03-13T03:42:19.700Z,10.80
2023-03-13T03:44:46.573Z,10.80
2023-03-13T03:47:13.501Z,10.80
2023-03-13T03:49:40.559Z,10.70
2023-03-13T03:52:07.403Z,10.50
2023-03-13T03:54:35.165Z,10.40
2023-03-13T03:57:01.985Z,10.40
2023-03-13T03:59:28.756Z,10.30
2023-03-13T04:01:55.636Z,10.30
2023-03-13T04:04:22.505Z,10.40
2023-03-13T04:06:49.267Z,10.50
2023-03-13T04:09:16.107Z,10.50
2023-03-13T04:11:51.483Z,10.50
2023-03-13T04:14:18.311Z,10.70
2023-03-13T04:16:45.250Z,10.80
2023-03-13T04:19:11.967Z,10.90
2023-03-13T04:21:39.671Z,11.00
2023-03-13T04:24:06.762Z,10.90
2023-03-13T04:26:33.510Z,10.90
2023-03-13T04:29:00.280Z,10.90
2023-03-13T04:31:27.066Z,11.00
2023-03-13T04:33:53.879Z,11.00
2023-03-13T04:36:20.632Z,11.10
2023-03-13T04:39:10.169Z,11.10
2023-03-13T04:41:36.932Z,11.30
2023-03-13T04:44:03.824Z,11.40
2023-03-13T04:46:30.535Z,11.50
2023-03-13T04:48:57.333Z,11.60
2023-03-13T04:51:24.093Z,11.80
2023-03-13T04:53:50.874Z,11.80
2023-03-13T04:56:42.128Z,11.80
2023-03-13T04:59:11.878Z,11.90
2023-03-13T05:01:39.183Z,11.90
2023-03-13T05:04:06.360Z,11.90
2023-03-13T05:06:33.116Z,12.00
2023-03-13T05:09:00.040Z,12.20
2023-03-13T05:11:27.158Z,12.10
2023-03-13T05:13:54.071Z,12.10
2023-03-13T05:16:20.876Z,11.90
2023-03-13T05:18:47.613Z,11.60
2023-03-13T05:21:14.410Z,11.50
2023-03-13T05:23:41.221Z,11.50
2023-03-13T05:26:08.027Z,11.50
2023-03-13T05:28:34.878Z,11.40
2023-03-13T05:31:01.601Z,11.50
2023-03-13T05:33:28.407Z,11.40
2023-03-13T05:35:55.235Z,11.30
2023-03-13T05:38:22.048Z,11.40
2023-03-13T05:40:48.731Z,11.60
2023-03-13T05:43:15.481Z,11.80
2023-03-13T05:45:42.715Z,11.80
2023-03-13T05:48:09.431Z,11.90
2023-03-13T05:50:36.372Z,11.90
2023-03-13T05:53:03.073Z,11.80
2023-03-13T05:55:29.834Z,11.90
2023-03-13T05:57:56.860Z,12.10
2023-03-13T06:00:24.034Z,12.10
2023-03-13T06:02:50.739Z,12.20
2023-03-13T06:05:17.746Z,12.30
2023-03-13T06:07:44.503Z,12.30
2023-03-13T06:10:11.917Z,12.40
2023-03-13T06:12:38.710Z,12.50
2023-03-13T06:15:07.251Z,12.50
2023-03-13T06:17:34.022Z,12.40
2023-03-13T06:20:00.819Z,12.50
2023-03-13T06:22:27.707Z,12.40
2023-03-13T06:24:54.450Z,12.30
2023-03-13T06:27:21.136Z,12.50
2023-03-13T06:30:14.314Z,12.50
2023-03-13T06:32:38.005Z,12.30
2023-03-13T06:35:05.941Z,12.40
2023-03-13T06:37:32.906Z,12.40
2023-03-13T06:39:59.703Z,12.40
2023-03-13T06:42:26.526Z,12.40
2023-03-13T06:44:53.181Z,12.40
2023-03-13T06:47:19.975Z,0.00
2023-03-13T06:49:46.646Z,12.50
2023-03-13T06:52:13.354Z,12.40
2023-03-13T06:54:40.106Z,12.30
2023-03-13T06:57:06.922Z,12.10
2023-03-13T06:59:33.658Z,12.10
2023-03-13T07:02:00.494Z,12.10
2023-03-13T07:04:27.137Z,12.40
2023-03-13T07:06:54.245Z,12.50
2023-03-13T07:09:21.209Z,12.60
2023-03-13T07:11:48.134Z,12.60
2023-03-13T07:14:17.849Z,12.60
2023-03-13T07:16:46.186Z,12.70
2023-03-13T07:19:22.028Z,12.70
2023-03-13T07:21:49.721Z,12.70
2023-03-13T07:24:16.892Z,12.70
2023-03-13T07:26:57.943Z,12.70
2023-03-13T07:29:30.588Z,12.60
2023-03-13T07:31:57.433Z,12.70
2023-03-13T07:34:24.085Z,12.80
2023-03-13T07:36:50.830Z,12.90
2023-03-13T07:39:17.599Z,12.90
2023-03-13T07:41:44.504Z,13.00
2023-03-13T07:44:11.806Z,13.00
2023-03-13T07:46:38.727Z,13.00
2023-03-13T07:49:05.457Z,13.10
2023-03-13T07:51:42.848Z,13.10
2023-03-13T07:54:10.632Z,13.20
2023-03-13T07:56:37.312Z,13.30
2023-03-13T07:59:04.104Z,13.40
2023-03-13T08:01:31.514Z,13.60
2023-03-13T08:04:01.507Z,13.60
2023-03-13T08:06:35.660Z,13.60
2023-03-13T08:09:02.936Z,13.60
2023-03-13T08:11:29.872Z,13.70
2023-03-13T08:13:57.593Z,13.70
2023-03-13T08:16:27.148Z,13.80
2023-03-13T08:18:56.776Z,13.80
2023-03-13T08:21:28.877Z,13.90
2023-03-13T08:23:58.092Z,14.00
2023-03-13T08:26:27.550Z,13.90
2023-03-13T08:28:57.276Z,14.00
2023-03-13T08:31:29.857Z,14.10
2023-03-13T08:33:56.757Z,14.10
2023-03-13T08:36:33.253Z,14.20
2023-03-13T08:39:02.422Z,14.20
2023-03-13T08:41:33.858Z,14.30
2023-03-13T08:44:00.814Z,14.40
2023-03-13T08:46:30.473Z,14.30
2023-03-13T08:48:57.608Z,14.30
2023-03-13T08:51:26.352Z,14.30
2023-03-13T08:53:54.025Z,14.40
2023-03-13T08:56:22.736Z,14.40
2023-03-13T08:58:54.487Z,14.30
2023-03-13T09:01:30.836Z,0.00
2023-03-13T09:04:00.644Z,14.40
2023-03-13T09:06:29.718Z,14.40
2023-03-13T09:08:58.036Z,14.50
2023-03-13T09:11:25.126Z,0.00
2023-03-13T09:13:52.591Z,14.40
2023-03-13T09:16:22.793Z,14.40
2023-03-13T09:18:50.878Z,14.50
2023-03-13T09:21:22.697Z,14.60
2023-03-13T09:23:50.011Z,14.70
2023-03-13T09:26:18.162Z,14.80
2023-03-13T09:28:45.366Z,14.80
2023-03-13T09:31:13.652Z,14.90
2023-03-13T09:33:41.981Z,15.00
2023-03-13T09:36:09.249Z,14.90
2023-03-13T09:38:36.940Z,15.00
2023-03-13T09:41:18.300Z,15.20
2023-03-13T09:43:54.537Z,15.20
2023-03-13T09:46:43.135Z,15.30
2023-03-13T09:49:32.007Z,15.50
2023-03-13T09:52:04.915Z,15.50
2023-03-13T09:54:52.157Z,15.50
2023-03-13T09:57:34.974Z,15.70
2023-03-13T10:00:19.931Z,15.80
2023-03-13T10:02:53.212Z,15.70
2023-03-13T10:05:26.160Z,15.70
2023-03-13T10:08:08.376Z,15.90
2023-03-13T10:10:47.376Z,15.80
2023-03-13T10:13:27.009Z,16.00
2023-03-13T10:16:01.317Z,15.80
2023-03-13T10:18:28.133Z,15.90
2023-03-13T10:20:59.742Z,15.90
2023-03-13T10:23:40.947Z,16.00
2023-03-13T10:26:19.389Z,16.00
2023-03-13T10:28:46.262Z,16.20
2023-03-13T10:31:36.481Z,16.20
2023-03-13T10:34:14.319Z,16.30
2023-03-13T10:36:44.124Z,16.20
2023-03-13T10:39:30.092Z,16.30
2023-03-13T10:42:11.101Z,16.30
2023-03-13T10:44:38.447Z,16.30
2023-03-13T10:47:06.367Z,16.20
2023-03-13T10:49:34.133Z,16.20
2023-03-13T10:52:03.509Z,16.20
2023-03-13T10:54:39.466Z,16.20
2023-03-13T10:57:18.139Z,16.00
2023-03-13T10:59:50.214Z,16.10
2023-03-13T11:02:28.229Z,16.10
2023-03-13T11:04:56.412Z,16.00
2023-03-13T11:07:30.495Z,16.10
2023-03-13T11:10:07.351Z,16.10
2023-03-13T11:12:36.243Z,16.20
2023-03-13T11:15:13.125Z,16.20
2023-03-13T11:17:43.505Z,16.20
2023-03-13T11:20:23.336Z,16.20
2023-03-13T11:23:22.107Z,16.20
2023-03-13T11:26:25.911Z,16.20
2023-03-13T11:29:05.055Z,16.20
2023-03-13T11:31:39.882Z,16.20
2023-03-13T11:34:25.871Z,16.20
2023-03-13T11:37:11.571Z,16.30
2023-03-13T11:39:51.178Z,16.30
2023-03-13T11:42:45.917Z,0.00
2023-03-13T11:45:31.158Z,16.50
2023-03-13T11:48:16.727Z,16.30
2023-03-13T11:50:49.604Z,16.30
2023-03-13T11:53:59.886Z,16.30
2023-03-13T11:56:41.659Z,16.30
2023-03-13T11:59:20.393Z,16.40
2023-03-13T12:01:53.096Z,16.50
2023-03-13T12:04:24.887Z,16.60
2023-03-13T12:06:58.926Z,16.60
2023-03-13T12:09:39.747Z,16.70
2023-03-13T12:12:37.128Z,16.70
2023-03-13T12:15:21.528Z,16.90
2023-03-13T12:17:57.784Z,16.90
2023-03-13T12:20:45.327Z,17.00
2023-03-13T12:23:21.010Z,17.20
2023-03-13T12:26:02.870Z,17.30
2023-03-13T12:28:51.760Z,17.40
2023-03-13T12:31:42.938Z,17.40
2023-03-13T12:34:22.254Z,17.30
2023-03-13T12:36:56.806Z,17.30
2023-03-13T12:39:38.121Z,17.20
2023-03-13T12:42:22.993Z,17.10
2023-03-13T12:44:50.190Z,17.20
2023-03-13T12:48:00.048Z,17.30
2023-03-13T12:51:05.692Z,17.50
2023-03-13T12:53:44.616Z,17.40
2023-03-13T12:56:33.632Z,17.50
2023-03-13T12:59:22.233Z,17.50
2023-03-13T13:01:56.206Z,17.60
2023-03-13T13:04:30.692Z,17.70
2023-03-13T13:07:02.973Z,17.90
2023-03-13T13:09:36.352Z,17.80
2023-03-13T13:12:23.423Z,17.70
2023-03-13T13:14:50.265Z,17.70
2023-03-13T13:17:34.518Z,17.80
2023-03-13T13:20:27.130Z,17.80
2023-03-13T13:22:54.217Z,17.60
2023-03-13T13:25:29.108Z,17.60
2023-03-13T13:27:58.743Z,17.70
2023-03-13T13:30:32.134Z,17.60
2023-03-13T13:33:21.366Z,17.50
2023-03-13T13:36:10.691Z,17.40
2023-03-13T13:38:42.122Z,17.40
2023-03-13T13:41:11.755Z,17.20
2023-03-13T13:43:47.017Z,17.30
2023-03-13T13:46:34.205Z,17.50
2023-03-13T13:49:07.663Z,17.60
2023-03-13T13:51:40.268Z,17.40
2023-03-13T13:54:12.861Z,17.60
2023-03-13T13:56:42.803Z,17.50
2023-03-13T13:59:22.057Z,17.60
2023-03-13T14:01:51.189Z,17.80
2023-03-13T14:04:30.034Z,17.90
2023-03-13T14:07:01.785Z,17.90
2023-03-13T14:09:40.610Z,18.10
2023-03-13T14:12:26.076Z,18.10
2023-03-13T14:15:16.016Z,18.10
2023-03-13T14:17:48.792Z,18.10
2023-03-13T14:20:37.878Z,18.10
2023-03-13T14:23:11.985Z,18.10
2023-03-13T14:25:50.161Z,18.20
2023-03-13T14:28:26.310Z,18.30
2023-03-13T14:30:56.622Z,18.50
2023-03-13T14:33:26.794Z,18.50
2023-03-13T14:35:54.084Z,18.60
2023-03-13T14:38:26.378Z,18.50
2023-03-13T14:40:57.908Z,18.50
2023-03-13T14:43:41.908Z,18.60
2023-03-13T14:46:26.582Z,18.70
2023-03-13T14:48:56.168Z,18.60
2023-03-13T14:51:26.509Z,18.70
2023-03-13T14:54:02.988Z,18.50
2023-03-13T14:56:35.222Z,18.50
2023-03-13T14:59:19.132Z,18.30
2023-03-13T15:01:46.735Z,18.30
2023-03-13T15:04:13.664Z,18.30
2023-03-13T15:06:40.532Z,18.20
2023-03-13T15:09:10.110Z,18.20
2023-03-13T15:11:41.116Z,18.30
2023-03-13T15:14:37.801Z,18.30
2023-03-13T15:17:10.258Z,18.30
2023-03-13T15:19:36.994Z,18.20
2023-03-13T15:22:04.028Z,18.10
2023-03-13T15:24:30.876Z,18.10
2023-03-13T15:26:57.608Z,18.00
2023-03-13T15:29:24.619Z,18.00
2023-03-13T15:31:51.923Z,17.90
2023-03-13T15:34:20.931Z,17.90
2023-03-13T15:36:47.691Z,17.70
2023-03-13T15:39:16.584Z,17.70
2023-03-13T15:41:43.345Z,17.80
2023-03-13T15:44:10.042Z,17.80
2023-03-13T15:46:36.998Z,17.90
2023-03-13T15:49:04.270Z,17.90
2023-03-13T15:51:31.505Z,17.90
2023-03-13T15:53:58.231Z,17.80
2023-03-13T15:56:26.612Z,17.70
2023-03-13T15:58:53.801Z,17.70
2023-03-13T16:01:23.223Z,17.50
2023-03-13T16:03:50.065Z,17.60
2023-03-13T16:06:29.555Z,17.50
2023-03-13T16:08:56.835Z,17.40
2023-03-13T16:11:24.897Z,17.50
2023-03-13T16:13:52.859Z,17.40
2023-03-13T16:16:31.105Z,17.30
2023-03-13T16:18:58.999Z,17.40
2023-03-13T16:21:32.149Z,17.40
2023-03-13T16:23:59.012Z,17.20
2023-03-13T16:26:28.641Z,17.30
2023-03-13T16:28:55.842Z,17.30
2023-03-13T16:31:28.372Z,17.20
2023-03-13T16:33:56.269Z,17.20
2023-03-13T16:36:25.914Z,17.20
2023-03-13T16:38:52.926Z,17.20
2023-03-13T16:41:22.517Z,17.10
2023-03-13T16:43:50.048Z,17.00
2023-03-13T16:46:22.377Z,17.10
2023-03-13T16:48:50.692Z,17.10
2023-03-13T16:51:22.871Z,17.00
2023-03-13T16:53:52.013Z,16.90
2023-03-13T16:56:36.347Z,16.90
2023-03-13T16:59:07.021Z,16.90
2023-03-13T17:01:34.480Z,16.90
2023-03-13T17:04:01.434Z,16.90
2023-03-13T17:06:34.070Z,16.80
2023-03-13T17:09:04.154Z,16.90
2023-03-13T17:11:31.043Z,16.90
2023-03-13T17:13:59.399Z,16.80
2023-03-13T17:16:32.865Z,16.90
2023-03-13T17:19:01.952Z,16.90
2023-03-13T17:21:31.879Z,16.90
2023-03-13T17:24:00.481Z,16.90
2023-03-13T17:26:32.285Z,16.80
2023-03-13T17:29:00.513Z,16.90
2023-03-13T17:31:28.447Z,16.90
2023-03-13T17:33:55.262Z,16.90
2023-03-13T17:36:23.034Z,16.80
2023-03-13T17:38:53.120Z,16.90
2023-03-13T17:41:23.700Z,16.80
2023-03-13T17:43:50.441Z,16.80
2023-03-13T17:46:25.950Z,16.80
2023-03-13T17:48:54.285Z,16.80
2023-03-13T17:51:24.479Z,16.80
2023-03-13T17:53:52.491Z,16.80
2023-03-13T17:56:23.545Z,16.80
2023-03-13T17:58:54.247Z,16.80
2023-03-13T18:01:22.578Z,16.80
2023-03-13T18:03:50.206Z,16.80
2023-03-13T18:06:20.172Z,16.80
2023-03-13T18:08:48.416Z,16.80
2023-03-13T18:11:17.244Z,16.70
2023-03-13T18:13:47.764Z,16.80
2023-03-13T18:16:23.038Z,16.80
2023-03-13T18:18:50.338Z,16.70
2023-03-13T18:21:17.238Z,16.80
2023-03-13T18:23:44.112Z,16.70
2023-03-13T18:26:24.551Z,16.70
2023-03-13T18:28:52.467Z,16.60
2023-03-13T18:31:19.283Z,16.80
2023-03-13T18:33:47.745Z,16.70
2023-03-13T18:36:19.774Z,16.60
2023-03-13T18:38:48.177Z,16.70
2023-03-13T18:41:15.701Z,16.70
2023-03-13T18:43:43.563Z,16.70
2023-03-13T18:46:28.105Z,16.70
2023-03-13T18:48:55.501Z,16.70
2023-03-13T18:51:25.366Z,16.70
2023-03-13T18:53:53.509Z,16.60
2023-03-13T18:56:29.390Z,16.60
2023-03-13T18:58:56.714Z,16.60
2023-03-13T19:01:25.880Z,16.50
2023-03-13T19:03:53.061Z,16.50
2023-03-13T19:06:27.066Z,16.40
2023-03-13T19:08:59.609Z,16.40
2023-03-13T19:11:29.170Z,16.50
2023-03-13T19:13:56.491Z,16.40
2023-03-13T19:16:31.870Z,16.40
2023-03-13T19:18:58.732Z,16.40
2023-03-13T19:21:27.747Z,16.30
2023-03-13T19:23:55.697Z,16.20
2023-03-13T19:26:22.422Z,16.20
2023-03-13T19:28:49.088Z,16.20
2023-03-13T19:31:17.638Z,16.10
2023-03-13T19:33:46.441Z,16.10
2023-03-13T19:36:14.859Z,16.00
2023-03-13T19:38:42.472Z,15.90
2023-03-13T19:41:10.787Z,15.90
2023-03-13T19:43:38.618Z,16.00
2023-03-13T19:46:27.640Z,15.90
2023-03-13T19:49:04.254Z,16.00
2023-03-13T19:51:31.673Z,15.80
2023-03-13T19:53:58.716Z,15.90
2023-03-13T19:56:31.124Z,15.80
2023-03-13T19:59:02.717Z,15.90
2023-03-13T20:01:30.307Z,15.80
2023-03-13T20:03:57.466Z,15.90
2023-03-13T20:06:29.068Z,15.80
2023-03-13T20:09:01.336Z,15.90
2023-03-13T20:11:29.186Z,15.90
2023-03-13T20:13:56.662Z,15.90
2023-03-13T20:16:25.631Z,15.90
2023-03-13T20:18:55.287Z,15.90
2023-03-13T20:21:23.233Z,15.90
2023-03-13T20:23:50.753Z,15.80
2023-03-13T20:26:19.284Z,15.90
2023-03-13T20:28:48.882Z,15.90
2023-03-13T20:31:21.014Z,15.80
2023-03-13T20:33:47.885Z,15.80
2023-03-13T20:36:16.934Z,15.80
2023-03-13T20:38:44.059Z,15.80
2023-03-13T20:41:11.434Z,15.70
2023-03-13T20:43:39.242Z,15.80
2023-03-13T20:46:09.761Z,15.80
2023-03-13T20:48:39.322Z,15.80
2023-03-13T20:51:07.593Z,15.70
2023-03-13T20:53:39.043Z,15.70
2023-03-13T20:56:07.555Z,15.60
2023-03-13T20:58:35.651Z,15.70
2023-03-13T21:01:03.349Z,15.70
2023-03-13T21:03:35.026Z,15.60
2023-03-13T21:06:22.067Z,15.60
2023-03-13T21:08:48.896Z,15.60
2023-03-13T21:11:21.426Z,15.60
2023-03-13T21:13:48.551Z,15.60
2023-03-13T21:16:16.552Z,15.60
2023-03-13T21:18:43.712Z,15.50
2023-03-13T21:21:16.957Z,15.60
2023-03-13T21:23:44.616Z,15.50
2023-03-13T21:26:12.277Z,15.50
2023-03-13T21:28:40.261Z,15.40
2023-03-13T21:31:15.826Z,15.40
2023-03-13T21:33:43.600Z,15.40
2023-03-13T21:36:11.801Z,15.30
2023-03-13T21:38:38.574Z,15.30
2023-03-13T21:41:10.383Z,15.40
2023-03-13T21:43:37.635Z,15.30
2023-03-13T21:46:04.625Z,15.30
2023-03-13T21:48:31.422Z,15.40
2023-03-13T21:50:58.206Z,15.40
2023-03-13T21:53:25.179Z,15.30
2023-03-13T21:55:52.424Z,15.20
2023-03-13T21:58:21.885Z,15.20
2023-03-13T22:00:48.705Z,15.30
2023-03-13T22:03:15.592Z,15.20
2023-03-13T22:05:44.358Z,15.20
2023-03-13T22:08:11.693Z,15.20
2023-03-13T22:10:38.611Z,15.10
2023-03-13T22:13:09.828Z,15.10
2023-03-13T22:15:36.716Z,15.00
2023-03-13T22:18:03.649Z,14.90
2023-03-13T22:20:30.446Z,14.90
2023-03-13T22:22:57.231Z,14.90
2023-03-13T22:25:23.974Z,14.80
2023-03-13T22:27:50.636Z,14.80
2023-03-13T22:30:17.605Z,14.80
2023-03-13T22:32:44.353Z,14.80
2023-03-13T22:35:11.250Z,14.80
2023-03-13T22:37:38.485Z,14.80
2023-03-13T22:40:06.498Z,14.80
2023-03-13T22:42:33.327Z,14.80
2023-03-13T22:45:00.120Z,14.80
2023-03-13T22:47:26.896Z,14.90
2023-03-13T22:49:53.830Z,14.90
2023-03-13T22:52:29.079Z,14.80
2023-03-13T22:54:56.140Z,14.80
2023-03-13T22:57:22.960Z,14.80
2023-03-13T22:59:49.763Z,14.60
2023-03-13T23:02:16.399Z,14.70
2023-03-13T23:04:43.314Z,14.60
2023-03-13T23:07:10.104Z,14.70
2023-03-13T23:09:36.798Z,14.70
2023-03-13T23:12:03.702Z,14.70
2023-03-13T23:14:30.507Z,14.60
2023-03-13T23:16:57.748Z,14.70
2023-03-13T23:19:24.721Z,14.70
2023-03-13T23:21:51.555Z,14.70
2023-03-13T23:24:18.310Z,14.70
2023-03-13T23:26:45.148Z,14.70
2023-03-13T23:29:11.997Z,14.70
2023-03-13T23:31:38.724Z,0.00
2023-03-13T23:34:05.400Z,14.60
2023-03-13T23:36:32.123Z,14.70
2023-03-13T23:38:59.670Z,14.60
2023-03-13T23:41:26.454Z,14.60
2023-03-13T23:43:53.116Z,14.70
2023-03-13T23:46:22.350Z,14.60
2023-03-13T23:48:52.668Z,14.70
2023-03-13T23:51:19.439Z,14.70
2023-03-13T23:53:46.201Z,14.60
2023-03-13T23:56:13.070Z,14.60
2023-03-13T23:58:40.010Z,14.60
